sensor_id;sensor_type;location;lat;lon;timestamp;P1;durP1;ratioP1;P2;durP2;ratioP2
75760;SDS011;64373;46.136;8.830;2023-05-24T00:02:05;3.10;;;2.15;;
75760;SDS011;64373;46.136;8.830;2023-05-24T00:04:32;2.03;;;1.50;;
75760;SDS011;64373;46.136;8.830;2023-05-24T00:06:58;3.40;;;1.90;;
75760;SDS011;64373;46.136;8.830;2023-05-24T00:09:27;3.22;;;2.58;;
75760;SDS011;64373;46.136;8.830;2023-05-24T00:11:54;2.33;;;2.08;;
75760;SDS011;64373;46.136;8.830;2023-05-24T00:14:20;4.03;;;2.03;;
75760;SDS011;64373;46.136;8.830;2023-05-24T00:16:45;4.47;;;2.28;;
75760;SDS011;64373;46.136;8.830;2023-05-24T00:19:11;5.20;;;2.40;;
75760;SDS011;64373;46.136;8.830;2023-05-24T00:21:45;2.53;;;2.20;;
75760;SDS011;64373;46.136;8.830;2023-05-24T00:24:12;2.17;;;1.60;;
75760;SDS011;64373;46.136;8.830;2023-05-24T00:26:37;2.47;;;1.77;;
75760;SDS011;64373;46.136;8.830;2023-05-24T00:29:03;2.40;;;1.80;;
75760;SDS011;64373;46.136;8.830;2023-05-24T00:31:29;2.33;;;1.83;;
75760;SDS011;64373;46.136;8.830;2023-05-24T00:33:54;2.30;;;2.10;;
75760;SDS011;64373;46.136;8.830;2023-05-24T00:36:20;1.75;;;1.50;;
75760;SDS011;64373;46.136;8.830;2023-05-24T00:38:45;2.55;;;1.52;;
75760;SDS011;64373;46.136;8.830;2023-05-24T00:41:11;1.92;;;1.58;;
75760;SDS011;64373;46.136;8.830;2023-05-24T00:43:36;2.08;;;1.90;;
75760;SDS011;64373;46.136;8.830;2023-05-24T00:46:13;1.50;;;1.40;;
75760;SDS011;64373;46.136;8.830;2023-05-24T00:48:39;1.77;;;1.40;;
75760;SDS011;64373;46.136;8.830;2023-05-24T00:51:05;1.67;;;1.27;;
75760;SDS011;64373;46.136;8.830;2023-05-24T00:53:31;1.50;;;1.40;;
75760;SDS011;64373;46.136;8.830;2023-05-24T00:55:57;1.40;;;1.13;;
75760;SDS011;64373;46.136;8.830;2023-05-24T00:58:24;2.53;;;1.88;;
75760;SDS011;64373;46.136;8.830;2023-05-24T01:00:55;1.42;;;1.23;;
75760;SDS011;64373;46.136;8.830;2023-05-24T01:03:23;1.30;;;1.13;;
75760;SDS011;64373;46.136;8.830;2023-05-24T01:05:51;2.13;;;1.80;;
75760;SDS011;64373;46.136;8.830;2023-05-24T01:14:34;2.05;;;1.50;;
75760;SDS011;64373;46.136;8.830;2023-05-24T01:18:06;1.40;;;1.25;;
75760;SDS011;64373;46.136;8.830;2023-05-24T01:20:35;1.95;;;1.50;;
75760;SDS011;64373;46.136;8.830;2023-05-24T01:25:59;2.65;;;1.70;;
75760;SDS011;64373;46.136;8.830;2023-05-24T01:28:30;2.08;;;1.80;;
75760;SDS011;64373;46.136;8.830;2023-05-24T01:30:58;3.03;;;2.13;;
75760;SDS011;64373;46.136;8.830;2023-05-24T01:33:24;1.85;;;1.60;;
75760;SDS011;64373;46.136;8.830;2023-05-24T01:35:50;2.80;;;1.92;;
75760;SDS011;64373;46.136;8.830;2023-05-24T01:38:15;1.55;;;1.17;;
75760;SDS011;64373;46.136;8.830;2023-05-24T01:40:41;2.45;;;1.70;;
75760;SDS011;64373;46.136;8.830;2023-05-24T01:43:17;4.68;;;2.90;;
75760;SDS011;64373;46.136;8.830;2023-05-24T01:48:33;3.38;;;2.50;;
75760;SDS011;64373;46.136;8.830;2023-05-24T01:51:21;1.92;;;1.60;;
75760;SDS011;64373;46.136;8.830;2023-05-24T01:53:48;1.80;;;1.55;;
75760;SDS011;64373;46.136;8.830;2023-05-24T01:56:14;2.20;;;1.60;;
75760;SDS011;64373;46.136;8.830;2023-05-24T01:58:42;2.08;;;1.60;;
75760;SDS011;64373;46.136;8.830;2023-05-24T02:01:08;3.47;;;2.30;;
75760;SDS011;64373;46.136;8.830;2023-05-24T02:03:35;2.40;;;1.98;;
75760;SDS011;64373;46.136;8.830;2023-05-24T02:06:02;3.00;;;2.15;;
75760;SDS011;64373;46.136;8.830;2023-05-24T02:08:28;2.42;;;2.00;;
75760;SDS011;64373;46.136;8.830;2023-05-24T02:10:53;2.83;;;1.45;;
75760;SDS011;64373;46.136;8.830;2023-05-24T02:13:19;2.95;;;1.85;;
75760;SDS011;64373;46.136;8.830;2023-05-24T02:15:45;2.10;;;1.83;;
75760;SDS011;64373;46.136;8.830;2023-05-24T02:18:11;2.15;;;1.88;;
75760;SDS011;64373;46.136;8.830;2023-05-24T02:20:38;3.00;;;2.33;;
75760;SDS011;64373;46.136;8.830;2023-05-24T02:23:04;2.70;;;2.50;;
75760;SDS011;64373;46.136;8.830;2023-05-24T02:25:30;2.60;;;2.15;;
75760;SDS011;64373;46.136;8.830;2023-05-24T02:27:57;2.45;;;1.80;;
75760;SDS011;64373;46.136;8.830;2023-05-24T02:30:23;3.92;;;2.08;;
75760;SDS011;64373;46.136;8.830;2023-05-24T02:32:49;2.50;;;1.88;;
75760;SDS011;64373;46.136;8.830;2023-05-24T02:35:14;2.22;;;1.65;;
75760;SDS011;64373;46.136;8.830;2023-05-24T02:37:40;2.70;;;2.10;;
75760;SDS011;64373;46.136;8.830;2023-05-24T02:40:06;2.15;;;1.90;;
75760;SDS011;64373;46.136;8.830;2023-05-24T02:42:32;1.92;;;1.50;;
75760;SDS011;64373;46.136;8.830;2023-05-24T02:44:57;2.17;;;1.85;;
75760;SDS011;64373;46.136;8.830;2023-05-24T02:47:23;1.40;;;1.30;;
75760;SDS011;64373;46.136;8.830;2023-05-24T02:49:51;1.70;;;1.17;;
75760;SDS011;64373;46.136;8.830;2023-05-24T02:52:17;2.22;;;1.50;;
75760;SDS011;64373;46.136;8.830;2023-05-24T02:54:46;2.05;;;1.70;;
75760;SDS011;64373;46.136;8.830;2023-05-24T02:57:11;2.42;;;1.25;;
75760;SDS011;64373;46.136;8.830;2023-05-24T02:59:37;1.67;;;1.40;;
75760;SDS011;64373;46.136;8.830;2023-05-24T03:02:02;1.73;;;1.33;;
75760;SDS011;64373;46.136;8.830;2023-05-24T03:04:28;3.60;;;2.35;;
75760;SDS011;64373;46.136;8.830;2023-05-24T03:06:53;4.53;;;2.58;;
75760;SDS011;64373;46.136;8.830;2023-05-24T03:09:19;2.92;;;2.20;;
75760;SDS011;64373;46.136;8.830;2023-05-24T03:11:44;3.40;;;2.90;;
75760;SDS011;64373;46.136;8.830;2023-05-24T03:14:10;3.30;;;2.80;;
75760;SDS011;64373;46.136;8.830;2023-05-24T03:16:36;3.15;;;2.25;;
75760;SDS011;64373;46.136;8.830;2023-05-24T03:19:02;2.30;;;1.67;;
75760;SDS011;64373;46.136;8.830;2023-05-24T03:21:28;2.97;;;2.00;;
75760;SDS011;64373;46.136;8.830;2023-05-24T03:23:53;2.95;;;2.30;;
75760;SDS011;64373;46.136;8.830;2023-05-24T03:26:19;3.28;;;2.20;;
75760;SDS011;64373;46.136;8.830;2023-05-24T03:28:44;5.00;;;2.40;;
75760;SDS011;64373;46.136;8.830;2023-05-24T03:31:11;3.70;;;2.63;;
75760;SDS011;64373;46.136;8.830;2023-05-24T03:33:37;4.68;;;2.30;;
75760;SDS011;64373;46.136;8.830;2023-05-24T03:36:03;3.40;;;1.95;;
75760;SDS011;64373;46.136;8.830;2023-05-24T03:38:30;3.60;;;2.67;;
75760;SDS011;64373;46.136;8.830;2023-05-24T03:40:57;2.10;;;1.60;;
75760;SDS011;64373;46.136;8.830;2023-05-24T03:43:23;2.55;;;2.00;;
75760;SDS011;64373;46.136;8.830;2023-05-24T03:45:49;3.75;;;2.20;;
75760;SDS011;64373;46.136;8.830;2023-05-24T03:48:15;3.05;;;2.47;;
75760;SDS011;64373;46.136;8.830;2023-05-24T03:50:41;2.72;;;2.00;;
75760;SDS011;64373;46.136;8.830;2023-05-24T03:53:06;2.55;;;1.90;;
75760;SDS011;64373;46.136;8.830;2023-05-24T03:55:32;2.38;;;2.08;;
75760;SDS011;64373;46.136;8.830;2023-05-24T03:57:57;2.58;;;1.80;;
75760;SDS011;64373;46.136;8.830;2023-05-24T04:00:23;2.30;;;1.63;;
75760;SDS011;64373;46.136;8.830;2023-05-24T04:02:48;4.18;;;2.13;;
75760;SDS011;64373;46.136;8.830;2023-05-24T04:05:14;2.53;;;2.00;;
75760;SDS011;64373;46.136;8.830;2023-05-24T04:07:39;1.80;;;1.50;;
75760;SDS011;64373;46.136;8.830;2023-05-24T04:10:06;4.15;;;2.63;;
75760;SDS011;64373;46.136;8.830;2023-05-24T04:12:32;3.90;;;2.78;;
75760;SDS011;64373;46.136;8.830;2023-05-24T04:14:58;2.85;;;2.00;;
75760;SDS011;64373;46.136;8.830;2023-05-24T04:17:25;3.08;;;2.28;;
75760;SDS011;64373;46.136;8.830;2023-05-24T04:19:58;2.80;;;2.50;;
75760;SDS011;64373;46.136;8.830;2023-05-24T04:22:24;3.45;;;2.30;;
75760;SDS011;64373;46.136;8.830;2023-05-24T04:24:49;2.45;;;2.22;;
75760;SDS011;64373;46.136;8.830;2023-05-24T04:27:15;2.22;;;1.70;;
75760;SDS011;64373;46.136;8.830;2023-05-24T04:29:43;3.13;;;1.70;;
75760;SDS011;64373;46.136;8.830;2023-05-24T04:32:10;2.15;;;1.60;;
75760;SDS011;64373;46.136;8.830;2023-05-24T04:34:38;2.15;;;1.52;;
75760;SDS011;64373;46.136;8.830;2023-05-24T04:37:06;2.95;;;1.70;;
75760;SDS011;64373;46.136;8.830;2023-05-24T04:39:32;2.25;;;1.65;;
75760;SDS011;64373;46.136;8.830;2023-05-24T04:41:58;2.40;;;1.90;;
75760;SDS011;64373;46.136;8.830;2023-05-24T04:44:24;1.80;;;1.67;;
75760;SDS011;64373;46.136;8.830;2023-05-24T04:46:51;2.20;;;1.50;;
75760;SDS011;64373;46.136;8.830;2023-05-24T04:49:17;2.33;;;1.70;;
75760;SDS011;64373;46.136;8.830;2023-05-24T04:51:43;1.88;;;1.67;;
75760;SDS011;64373;46.136;8.830;2023-05-24T04:54:10;2.88;;;2.13;;
75760;SDS011;64373;46.136;8.830;2023-05-24T04:56:35;2.80;;;1.73;;
75760;SDS011;64373;46.136;8.830;2023-05-24T04:59:05;2.53;;;1.80;;
75760;SDS011;64373;46.136;8.830;2023-05-24T05:01:31;1.75;;;1.63;;
75760;SDS011;64373;46.136;8.830;2023-05-24T05:03:57;1.70;;;1.60;;
75760;SDS011;64373;46.136;8.830;2023-05-24T05:06:23;2.65;;;1.88;;
75760;SDS011;64373;46.136;8.830;2023-05-24T05:08:49;3.03;;;1.80;;
75760;SDS011;64373;46.136;8.830;2023-05-24T05:11:16;1.70;;;1.50;;
75760;SDS011;64373;46.136;8.830;2023-05-24T05:13:43;3.22;;;2.00;;
75760;SDS011;64373;46.136;8.830;2023-05-24T05:16:09;3.38;;;2.17;;
75760;SDS011;64373;46.136;8.830;2023-05-24T05:18:35;2.10;;;1.90;;
75760;SDS011;64373;46.136;8.830;2023-05-24T05:21:01;2.25;;;1.67;;
75760;SDS011;64373;46.136;8.830;2023-05-24T05:23:28;1.77;;;1.52;;
75760;SDS011;64373;46.136;8.830;2023-05-24T05:25:54;1.65;;;1.48;;
75760;SDS011;64373;46.136;8.830;2023-05-24T05:28:20;4.15;;;2.78;;
75760;SDS011;64373;46.136;8.830;2023-05-24T05:30:45;3.35;;;2.10;;
75760;SDS011;64373;46.136;8.830;2023-05-24T05:33:11;2.10;;;1.90;;
75760;SDS011;64373;46.136;8.830;2023-05-24T05:35:36;3.15;;;1.83;;
75760;SDS011;64373;46.136;8.830;2023-05-24T05:38:02;2.60;;;1.77;;
75760;SDS011;64373;46.136;8.830;2023-05-24T05:40:27;4.78;;;2.60;;
75760;SDS011;64373;46.136;8.830;2023-05-24T05:42:53;6.00;;;2.13;;
75760;SDS011;64373;46.136;8.830;2023-05-24T05:45:18;3.05;;;2.35;;
75760;SDS011;64373;46.136;8.830;2023-05-24T05:47:44;2.60;;;2.20;;
75760;SDS011;64373;46.136;8.830;2023-05-24T05:50:09;2.70;;;2.20;;
75760;SDS011;64373;46.136;8.830;2023-05-24T05:52:35;2.42;;;2.10;;
75760;SDS011;64373;46.136;8.830;2023-05-24T05:55:01;4.20;;;2.15;;
75760;SDS011;64373;46.136;8.830;2023-05-24T05:57:26;3.25;;;2.00;;
75760;SDS011;64373;46.136;8.830;2023-05-24T05:59:52;3.35;;;2.13;;
75760;SDS011;64373;46.136;8.830;2023-05-24T06:02:17;8.98;;;2.95;;
75760;SDS011;64373;46.136;8.830;2023-05-24T06:04:43;2.90;;;1.90;;
75760;SDS011;64373;46.136;8.830;2023-05-24T06:07:09;2.47;;;1.80;;
75760;SDS011;64373;46.136;8.830;2023-05-24T06:09:35;2.90;;;1.77;;
75760;SDS011;64373;46.136;8.830;2023-05-24T06:12:00;3.97;;;2.10;;
75760;SDS011;64373;46.136;8.830;2023-05-24T06:14:26;4.72;;;2.42;;
75760;SDS011;64373;46.136;8.830;2023-05-24T06:16:51;4.97;;;2.25;;
75760;SDS011;64373;46.136;8.830;2023-05-24T06:19:18;3.08;;;2.20;;
75760;SDS011;64373;46.136;8.830;2023-05-24T06:21:45;7.95;;;2.47;;
75760;SDS011;64373;46.136;8.830;2023-05-24T06:24:15;4.93;;;2.33;;
75760;SDS011;64373;46.136;8.830;2023-05-24T06:26:45;5.75;;;2.20;;
75760;SDS011;64373;46.136;8.830;2023-05-24T06:29:14;3.05;;;1.70;;
75760;SDS011;64373;46.136;8.830;2023-05-24T06:31:39;1.77;;;1.50;;
75760;SDS011;64373;46.136;8.830;2023-05-24T06:34:06;2.22;;;1.92;;
75760;SDS011;64373;46.136;8.830;2023-05-24T06:36:31;4.95;;;1.83;;
75760;SDS011;64373;46.136;8.830;2023-05-24T06:39:05;2.45;;;1.95;;
75760;SDS011;64373;46.136;8.830;2023-05-24T06:41:30;2.28;;;1.98;;
75760;SDS011;64373;46.136;8.830;2023-05-24T06:43:56;3.53;;;1.75;;
75760;SDS011;64373;46.136;8.830;2023-05-24T06:46:21;2.58;;;1.75;;
75760;SDS011;64373;46.136;8.830;2023-05-24T06:48:47;2.38;;;1.92;;
75760;SDS011;64373;46.136;8.830;2023-05-24T06:51:12;3.28;;;2.13;;
75760;SDS011;64373;46.136;8.830;2023-05-24T06:53:38;2.85;;;2.30;;
75760;SDS011;64373;46.136;8.830;2023-05-24T06:56:03;1.92;;;1.50;;
75760;SDS011;64373;46.136;8.830;2023-05-24T06:58:29;2.53;;;1.73;;
75760;SDS011;64373;46.136;8.830;2023-05-24T07:00:54;2.08;;;1.88;;
75760;SDS011;64373;46.136;8.830;2023-05-24T07:03:20;1.70;;;1.55;;
75760;SDS011;64373;46.136;8.830;2023-05-24T07:05:46;2.13;;;1.70;;
75760;SDS011;64373;46.136;8.830;2023-05-24T07:08:11;1.80;;;1.60;;
75760;SDS011;64373;46.136;8.830;2023-05-24T07:10:37;2.65;;;1.90;;
75760;SDS011;64373;46.136;8.830;2023-05-24T07:13:02;2.00;;;1.70;;
75760;SDS011;64373;46.136;8.830;2023-05-24T07:15:28;1.50;;;1.40;;
75760;SDS011;64373;46.136;8.830;2023-05-24T07:17:54;2.67;;;1.70;;
75760;SDS011;64373;46.136;8.830;2023-05-24T07:20:20;2.05;;;1.70;;
75760;SDS011;64373;46.136;8.830;2023-05-24T07:22:45;2.83;;;1.60;;
75760;SDS011;64373;46.136;8.830;2023-05-24T07:25:11;2.25;;;1.60;;
75760;SDS011;64373;46.136;8.830;2023-05-24T07:27:36;1.90;;;1.70;;
75760;SDS011;64373;46.136;8.830;2023-05-24T07:30:03;3.95;;;1.92;;
75760;SDS011;64373;46.136;8.830;2023-05-24T07:32:29;2.85;;;1.80;;
75760;SDS011;64373;46.136;8.830;2023-05-24T07:34:57;2.75;;;1.95;;
75760;SDS011;64373;46.136;8.830;2023-05-24T07:37:22;2.65;;;1.83;;
75760;SDS011;64373;46.136;8.830;2023-05-24T07:39:49;3.35;;;2.40;;
75760;SDS011;64373;46.136;8.830;2023-05-24T07:42:16;2.28;;;1.90;;
75760;SDS011;64373;46.136;8.830;2023-05-24T07:44:41;3.20;;;2.40;;
75760;SDS011;64373;46.136;8.830;2023-05-24T07:47:07;4.10;;;3.05;;
75760;SDS011;64373;46.136;8.830;2023-05-24T07:49:32;5.68;;;2.90;;
75760;SDS011;64373;46.136;8.830;2023-05-24T07:51:58;4.55;;;3.13;;
75760;SDS011;64373;46.136;8.830;2023-05-24T07:54:24;4.03;;;2.70;;
75760;SDS011;64373;46.136;8.830;2023-05-24T07:56:50;3.65;;;2.70;;
75760;SDS011;64373;46.136;8.830;2023-05-24T07:59:16;2.88;;;2.40;;
75760;SDS011;64373;46.136;8.830;2023-05-24T08:01:42;4.32;;;3.30;;
75760;SDS011;64373;46.136;8.830;2023-05-24T08:04:07;6.20;;;3.55;;
75760;SDS011;64373;46.136;8.830;2023-05-24T08:06:34;4.45;;;2.70;;
75760;SDS011;64373;46.136;8.830;2023-05-24T08:09:00;3.97;;;2.78;;
75760;SDS011;64373;46.136;8.830;2023-05-24T08:11:27;4.38;;;2.10;;
75760;SDS011;64373;46.136;8.830;2023-05-24T08:13:53;6.13;;;2.92;;
75760;SDS011;64373;46.136;8.830;2023-05-24T08:16:18;5.65;;;2.50;;
75760;SDS011;64373;46.136;8.830;2023-05-24T08:18:44;6.53;;;3.08;;
75760;SDS011;64373;46.136;8.830;2023-05-24T08:21:10;2.85;;;2.05;;
75760;SDS011;64373;46.136;8.830;2023-05-24T08:23:35;2.60;;;2.00;;
75760;SDS011;64373;46.136;8.830;2023-05-24T08:26:01;4.50;;;3.42;;
75760;SDS011;64373;46.136;8.830;2023-05-24T08:28:27;4.70;;;3.33;;
75760;SDS011;64373;46.136;8.830;2023-05-24T08:30:53;5.65;;;3.78;;
75760;SDS011;64373;46.136;8.830;2023-05-24T08:33:18;4.18;;;2.95;;
75760;SDS011;64373;46.136;8.830;2023-05-24T08:35:44;5.07;;;3.20;;
75760;SDS011;64373;46.136;8.830;2023-05-24T08:38:10;5.78;;;3.05;;
75760;SDS011;64373;46.136;8.830;2023-05-24T08:40:36;4.45;;;3.13;;
75760;SDS011;64373;46.136;8.830;2023-05-24T08:43:01;4.55;;;2.72;;
75760;SDS011;64373;46.136;8.830;2023-05-24T08:45:31;3.10;;;2.28;;
75760;SDS011;64373;46.136;8.830;2023-05-24T08:47:57;4.45;;;2.22;;
75760;SDS011;64373;46.136;8.830;2023-05-24T08:50:23;5.20;;;3.30;;
75760;SDS011;64373;46.136;8.830;2023-05-24T08:52:48;7.60;;;4.25;;
75760;SDS011;64373;46.136;8.830;2023-05-24T08:55:15;4.30;;;2.92;;
75760;SDS011;64373;46.136;8.830;2023-05-24T08:57:41;4.07;;;2.50;;
75760;SDS011;64373;46.136;8.830;2023-05-24T09:00:08;3.03;;;2.08;;
75760;SDS011;64373;46.136;8.830;2023-05-24T09:02:39;4.57;;;2.67;;
75760;SDS011;64373;46.136;8.830;2023-05-24T09:05:09;6.78;;;4.32;;
75760;SDS011;64373;46.136;8.830;2023-05-24T09:07:36;3.67;;;3.00;;
75760;SDS011;64373;46.136;8.830;2023-05-24T09:10:05;3.83;;;2.85;;
75760;SDS011;64373;46.136;8.830;2023-05-24T09:12:32;4.03;;;2.63;;
75760;SDS011;64373;46.136;8.830;2023-05-24T09:15:00;4.03;;;2.83;;
75760;SDS011;64373;46.136;8.830;2023-05-24T09:17:27;6.30;;;2.65;;
75760;SDS011;64373;46.136;8.830;2023-05-24T09:19:56;4.07;;;2.40;;
75760;SDS011;64373;46.136;8.830;2023-05-24T09:22:23;3.10;;;2.72;;
75760;SDS011;64373;46.136;8.830;2023-05-24T09:24:50;6.35;;;3.85;;
75760;SDS011;64373;46.136;8.830;2023-05-24T09:27:17;5.85;;;3.72;;
75760;SDS011;64373;46.136;8.830;2023-05-24T09:29:46;7.65;;;4.20;;
75760;SDS011;64373;46.136;8.830;2023-05-24T09:32:13;4.55;;;3.25;;
75760;SDS011;64373;46.136;8.830;2023-05-24T09:34:40;4.95;;;2.90;;
75760;SDS011;64373;46.136;8.830;2023-05-24T09:37:10;3.40;;;2.50;;
75760;SDS011;64373;46.136;8.830;2023-05-24T09:39:40;3.80;;;2.45;;
75760;SDS011;64373;46.136;8.830;2023-05-24T09:42:06;3.85;;;3.08;;
75760;SDS011;64373;46.136;8.830;2023-05-24T09:44:32;5.07;;;3.50;;
75760;SDS011;64373;46.136;8.830;2023-05-24T09:47:00;4.20;;;3.30;;
75760;SDS011;64373;46.136;8.830;2023-05-24T09:49:29;3.88;;;3.05;;
75760;SDS011;64373;46.136;8.830;2023-05-24T09:51:55;4.65;;;3.58;;
75760;SDS011;64373;46.136;8.830;2023-05-24T09:54:20;6.53;;;4.70;;
75760;SDS011;64373;46.136;8.830;2023-05-24T09:56:46;5.88;;;4.13;;
75760;SDS011;64373;46.136;8.830;2023-05-24T09:59:12;3.97;;;3.03;;
75760;SDS011;64373;46.136;8.830;2023-05-24T10:01:39;6.38;;;4.32;;
75760;SDS011;64373;46.136;8.830;2023-05-24T10:04:05;5.97;;;4.20;;
75760;SDS011;64373;46.136;8.830;2023-05-24T10:06:34;5.75;;;3.50;;
75760;SDS011;64373;46.136;8.830;2023-05-24T10:09:04;4.68;;;2.67;;
75760;SDS011;64373;46.136;8.830;2023-05-24T10:11:36;5.50;;;4.03;;
75760;SDS011;64373;46.136;8.830;2023-05-24T10:14:05;5.25;;;3.50;;
75760;SDS011;64373;46.136;8.830;2023-05-24T10:16:31;6.00;;;3.90;;
75760;SDS011;64373;46.136;8.830;2023-05-24T10:18:57;4.03;;;3.00;;
75760;SDS011;64373;46.136;8.830;2023-05-24T10:21:23;6.93;;;4.60;;
75760;SDS011;64373;46.136;8.830;2023-05-24T10:23:50;7.55;;;4.45;;
75760;SDS011;64373;46.136;8.830;2023-05-24T10:26:16;7.22;;;4.75;;
75760;SDS011;64373;46.136;8.830;2023-05-24T10:28:50;9.30;;;4.88;;
75760;SDS011;64373;46.136;8.830;2023-05-24T10:31:21;5.07;;;3.40;;
75760;SDS011;64373;46.136;8.830;2023-05-24T10:33:50;4.43;;;2.85;;
75760;SDS011;64373;46.136;8.830;2023-05-24T10:36:17;4.15;;;3.15;;
75760;SDS011;64373;46.136;8.830;2023-05-24T10:38:45;3.40;;;3.00;;
75760;SDS011;64373;46.136;8.830;2023-05-24T10:41:11;4.05;;;2.58;;
75760;SDS011;64373;46.136;8.830;2023-05-24T10:43:37;3.83;;;2.67;;
75760;SDS011;64373;46.136;8.830;2023-05-24T10:46:03;3.75;;;2.35;;
75760;SDS011;64373;46.136;8.830;2023-05-24T10:48:33;4.55;;;3.50;;
75760;SDS011;64373;46.136;8.830;2023-05-24T10:53:57;4.10;;;3.30;;
75760;SDS011;64373;46.136;8.830;2023-05-24T10:56:44;3.97;;;3.10;;
75760;SDS011;64373;46.136;8.830;2023-05-24T10:59:27;5.88;;;3.85;;
75760;SDS011;64373;46.136;8.830;2023-05-24T11:01:58;3.20;;;2.53;;
75760;SDS011;64373;46.136;8.830;2023-05-24T11:04:26;5.32;;;3.35;;
75760;SDS011;64373;46.136;8.830;2023-05-24T11:09:33;5.93;;;2.90;;
75760;SDS011;64373;46.136;8.830;2023-05-24T11:12:01;24.90;;;5.75;;
75760;SDS011;64373;46.136;8.830;2023-05-24T11:14:28;11.85;;;4.90;;
75760;SDS011;64373;46.136;8.830;2023-05-24T11:16:55;4.97;;;3.25;;
75760;SDS011;64373;46.136;8.830;2023-05-24T11:22:05;4.05;;;3.22;;
75760;SDS011;64373;46.136;8.830;2023-05-24T11:24:31;7.15;;;4.30;;
75760;SDS011;64373;46.136;8.830;2023-05-24T11:26:58;4.65;;;3.20;;
75760;SDS011;64373;46.136;8.830;2023-05-24T11:29:24;2.88;;;2.28;;
75760;SDS011;64373;46.136;8.830;2023-05-24T11:31:50;3.10;;;2.80;;
75760;SDS011;64373;46.136;8.830;2023-05-24T11:34:22;6.25;;;3.63;;
75760;SDS011;64373;46.136;8.830;2023-05-24T11:36:48;2.80;;;2.20;;
75760;SDS011;64373;46.136;8.830;2023-05-24T11:39:16;3.83;;;3.08;;
75760;SDS011;64373;46.136;8.830;2023-05-24T11:41:42;7.38;;;3.50;;
75760;SDS011;64373;46.136;8.830;2023-05-24T11:44:09;4.47;;;2.60;;
75760;SDS011;64373;46.136;8.830;2023-05-24T11:46:36;5.82;;;2.70;;
75760;SDS011;64373;46.136;8.830;2023-05-24T11:49:03;3.50;;;2.72;;
75760;SDS011;64373;46.136;8.830;2023-05-24T11:51:29;5.88;;;3.53;;
75760;SDS011;64373;46.136;8.830;2023-05-24T11:53:57;4.45;;;3.10;;
75760;SDS011;64373;46.136;8.830;2023-05-24T11:56:23;3.17;;;2.28;;
75760;SDS011;64373;46.136;8.830;2023-05-24T11:58:50;3.72;;;2.40;;
75760;SDS011;64373;46.136;8.830;2023-05-24T12:01:23;3.25;;;2.83;;
75760;SDS011;64373;46.136;8.830;2023-05-24T12:03:50;2.80;;;2.50;;
75760;SDS011;64373;46.136;8.830;2023-05-24T12:06:17;3.17;;;2.55;;
75760;SDS011;64373;46.136;8.830;2023-05-24T12:08:43;4.15;;;2.70;;
75760;SDS011;64373;46.136;8.830;2023-05-24T12:11:09;5.00;;;3.65;;
75760;SDS011;64373;46.136;8.830;2023-05-24T12:13:35;4.60;;;2.88;;
75760;SDS011;64373;46.136;8.830;2023-05-24T12:16:02;7.82;;;3.72;;
75760;SDS011;64373;46.136;8.830;2023-05-24T12:18:29;5.13;;;4.40;;
75760;SDS011;64373;46.136;8.830;2023-05-24T12:20:55;4.05;;;3.30;;
75760;SDS011;64373;46.136;8.830;2023-05-24T12:23:24;3.65;;;3.13;;
75760;SDS011;64373;46.136;8.830;2023-05-24T12:25:59;4.22;;;3.00;;
75760;SDS011;64373;46.136;8.830;2023-05-24T12:28:25;4.05;;;3.45;;
75760;SDS011;64373;46.136;8.830;2023-05-24T12:30:51;4.97;;;3.20;;
75760;SDS011;64373;46.136;8.830;2023-05-24T12:33:17;4.55;;;3.80;;
75760;SDS011;64373;46.136;8.830;2023-05-24T12:35:44;4.63;;;2.75;;
75760;SDS011;64373;46.136;8.830;2023-05-24T12:38:11;3.78;;;3.13;;
75760;SDS011;64373;46.136;8.830;2023-05-24T12:40:39;4.90;;;3.38;;
75760;SDS011;64373;46.136;8.830;2023-05-24T12:43:06;5.35;;;3.47;;
75760;SDS011;64373;46.136;8.830;2023-05-24T12:45:32;5.05;;;2.90;;
75760;SDS011;64373;46.136;8.830;2023-05-24T12:47:58;6.47;;;3.88;;
75760;SDS011;64373;46.136;8.830;2023-05-24T12:50:26;5.60;;;4.28;;
75760;SDS011;64373;46.136;8.830;2023-05-24T12:52:52;5.28;;;3.42;;
75760;SDS011;64373;46.136;8.830;2023-05-24T12:55:21;3.58;;;2.75;;
75760;SDS011;64373;46.136;8.830;2023-05-24T12:57:47;3.58;;;2.90;;
75760;SDS011;64373;46.136;8.830;2023-05-24T13:00:24;6.72;;;3.72;;
75760;SDS011;64373;46.136;8.830;2023-05-24T13:02:53;5.88;;;4.10;;
75760;SDS011;64373;46.136;8.830;2023-05-24T13:05:26;6.63;;;3.97;;
75760;SDS011;64373;46.136;8.830;2023-05-24T13:07:53;6.00;;;3.55;;
75760;SDS011;64373;46.136;8.830;2023-05-24T13:10:20;4.72;;;3.53;;
75760;SDS011;64373;46.136;8.830;2023-05-24T13:12:47;6.07;;;4.28;;
75760;SDS011;64373;46.136;8.830;2023-05-24T13:15:12;6.25;;;4.20;;
75760;SDS011;64373;46.136;8.830;2023-05-24T13:17:42;4.40;;;3.60;;
75760;SDS011;64373;46.136;8.830;2023-05-24T13:20:07;4.57;;;3.50;;
75760;SDS011;64373;46.136;8.830;2023-05-24T13:22:35;6.00;;;3.88;;
75760;SDS011;64373;46.136;8.830;2023-05-24T13:25:02;4.13;;;3.53;;
75760;SDS011;64373;46.136;8.830;2023-05-24T13:27:28;6.55;;;4.32;;
75760;SDS011;64373;46.136;8.830;2023-05-24T13:29:54;5.22;;;4.45;;
75760;SDS011;64373;46.136;8.830;2023-05-24T13:32:20;6.38;;;3.65;;
75760;SDS011;64373;46.136;8.830;2023-05-24T13:34:46;5.57;;;3.78;;
75760;SDS011;64373;46.136;8.830;2023-05-24T13:37:12;4.40;;;3.80;;
75760;SDS011;64373;46.136;8.830;2023-05-24T13:39:37;4.07;;;3.53;;
75760;SDS011;64373;46.136;8.830;2023-05-24T13:42:03;4.72;;;4.00;;
75760;SDS011;64373;46.136;8.830;2023-05-24T13:44:30;7.40;;;4.55;;
75760;SDS011;64373;46.136;8.830;2023-05-24T13:46:56;9.48;;;4.68;;
75760;SDS011;64373;46.136;8.830;2023-05-24T13:49:22;5.20;;;3.70;;
75760;SDS011;64373;46.136;8.830;2023-05-24T13:51:48;4.68;;;2.95;;
75760;SDS011;64373;46.136;8.830;2023-05-24T13:54:13;5.80;;;3.60;;
75760;SDS011;64373;46.136;8.830;2023-05-24T13:56:39;6.07;;;4.00;;
75760;SDS011;64373;46.136;8.830;2023-05-24T13:59:06;4.82;;;3.58;;
75760;SDS011;64373;46.136;8.830;2023-05-24T14:01:32;4.03;;;3.17;;
75760;SDS011;64373;46.136;8.830;2023-05-24T14:04:00;11.32;;;5.18;;
75760;SDS011;64373;46.136;8.830;2023-05-24T14:06:26;6.15;;;4.63;;
75760;SDS011;64373;46.136;8.830;2023-05-24T14:08:52;6.85;;;4.63;;
75760;SDS011;64373;46.136;8.830;2023-05-24T14:11:17;4.80;;;3.75;;
75760;SDS011;64373;46.136;8.830;2023-05-24T14:13:43;4.57;;;3.30;;
75760;SDS011;64373;46.136;8.830;2023-05-24T14:16:09;4.68;;;3.33;;
75760;SDS011;64373;46.136;8.830;2023-05-24T14:18:35;4.82;;;3.95;;
75760;SDS011;64373;46.136;8.830;2023-05-24T14:21:01;7.00;;;3.47;;
75760;SDS011;64373;46.136;8.830;2023-05-24T14:23:26;8.70;;;4.20;;
75760;SDS011;64373;46.136;8.830;2023-05-24T14:25:55;4.90;;;3.58;;
75760;SDS011;64373;46.136;8.830;2023-05-24T14:28:21;5.13;;;3.53;;
75760;SDS011;64373;46.136;8.830;2023-05-24T14:30:47;4.47;;;3.60;;
75760;SDS011;64373;46.136;8.830;2023-05-24T14:33:13;5.10;;;3.30;;
75760;SDS011;64373;46.136;8.830;2023-05-24T14:35:38;5.43;;;3.13;;
75760;SDS011;64373;46.136;8.830;2023-05-24T14:38:04;5.50;;;3.60;;
75760;SDS011;64373;46.136;8.830;2023-05-24T14:40:31;4.82;;;3.10;;
75760;SDS011;64373;46.136;8.830;2023-05-24T14:43:01;4.78;;;3.17;;
75760;SDS011;64373;46.136;8.830;2023-05-24T14:45:28;4.15;;;2.78;;
75760;SDS011;64373;46.136;8.830;2023-05-24T14:47:53;2.53;;;2.10;;
75760;SDS011;64373;46.136;8.830;2023-05-24T14:50:19;3.28;;;2.30;;
75760;SDS011;64373;46.136;8.830;2023-05-24T14:52:45;2.40;;;2.20;;
75760;SDS011;64373;46.136;8.830;2023-05-24T14:55:11;3.55;;;2.67;;
75760;SDS011;64373;46.136;8.830;2023-05-24T14:57:37;5.30;;;2.72;;
75760;SDS011;64373;46.136;8.830;2023-05-24T15:00:03;5.25;;;3.30;;
75760;SDS011;64373;46.136;8.830;2023-05-24T15:02:29;3.47;;;3.17;;
75760;SDS011;64373;46.136;8.830;2023-05-24T15:04:55;5.57;;;3.33;;
75760;SDS011;64373;46.136;8.830;2023-05-24T15:07:20;3.33;;;2.85;;